createdAt,value
2023-04-27T00:00:28.508Z,7.24
2023-04-27T00:03:16.407Z,7.24
2023-04-27T00:05:45.279Z,7.24
2023-04-27T00:08:13.925Z,7.24
2023-04-27T00:10:42.544Z,7.24
2023-04-27T00:13:11.218Z,7.22
2023-04-27T00:15:39.780Z,7.23
2023-04-27T00:18:08.375Z,7.22
2023-04-27T00:20:36.874Z,7.22
2023-04-27T00:23:05.227Z,7.23
2023-04-27T00:25:33.999Z,7.23
2023-04-27T00:28:02.701Z,7.23
2023-04-27T00:30:32.531Z,7.23
2023-04-27T00:33:02.708Z,7.21
2023-04-27T00:35:33.114Z,7.20
2023-04-27T00:38:01.648Z,7.17
2023-04-27T00:40:30.703Z,7.15
2023-04-27T00:42:59.139Z,7.13
2023-04-27T00:45:27.704Z,7.12
2023-04-27T00:47:57.175Z,7.11
2023-04-27T00:50:30.017Z,7.11
2023-04-27T00:52:59.085Z,7.11
2023-04-27T00:55:27.476Z,7.10
2023-04-27T00:57:57.081Z,7.09
2023-04-27T01:00:25.971Z,7.07
2023-04-27T01:02:56.628Z,7.05
2023-04-27T01:05:26.616Z,7.02
2023-04-27T01:07:55.818Z,7.01
2023-04-27T01:10:24.608Z,6.99
2023-04-27T01:12:53.507Z,6.98
2023-04-27T01:15:21.987Z,6.98
2023-04-27T01:17:58.220Z,6.97
2023-04-27T01:20:30.522Z,6.96
2023-04-27T01:23:00.129Z,6.96
2023-04-27T01:25:28.497Z,6.96
2023-04-27T01:27:57.095Z,6.94
2023-04-27T01:30:26.455Z,6.91
2023-04-27T01:32:55.083Z,6.88
2023-04-27T01:35:23.550Z,6.85
2023-04-27T01:37:52.653Z,6.83
2023-04-27T01:40:21.441Z,6.82
2023-04-27T01:42:49.818Z,6.81
2023-04-27T01:45:18.469Z,6.82
2023-04-27T01:47:47.054Z,6.83
2023-04-27T01:50:15.675Z,6.83
2023-04-27T01:52:44.262Z,6.83
2023-04-27T01:55:12.753Z,6.83
2023-04-27T01:57:41.323Z,6.82
2023-04-27T02:00:11.039Z,6.82
2023-04-27T02:02:53.833Z,6.83
2023-04-27T02:05:24.783Z,6.85
2023-04-27T02:07:54.408Z,6.86
2023-04-27T02:10:25.627Z,6.88
2023-04-27T02:12:57.509Z,6.90
2023-04-27T02:15:26.210Z,6.89
2023-04-27T02:17:56.108Z,6.87
2023-04-27T02:20:25.218Z,6.86
2023-04-27T02:22:55.950Z,6.84
2023-04-27T02:25:28.190Z,6.84
2023-04-27T02:27:57.354Z,6.84
2023-04-27T02:30:26.820Z,6.85
2023-04-27T02:33:01.027Z,6.86
2023-04-27T02:35:29.675Z,6.87
2023-04-27T02:38:01.531Z,6.86
2023-04-27T02:40:30.104Z,6.84
2023-04-27T02:42:59.158Z,6.82
2023-04-27T02:45:28.877Z,6.82
2023-04-27T02:47:57.504Z,6.83
2023-04-27T02:50:26.146Z,6.83
2023-04-27T02:52:55.838Z,6.84
2023-04-27T02:55:24.132Z,6.86
2023-04-27T02:57:53.304Z,6.86
2023-04-27T03:00:22.196Z,6.85
2023-04-27T03:02:51.270Z,6.82
2023-04-27T03:05:20.104Z,6.80
2023-04-27T03:07:48.991Z,6.77
2023-04-27T03:10:17.677Z,6.74
2023-04-27T03:12:46.261Z,6.72
2023-04-27T03:15:14.754Z,6.71
2023-04-27T03:17:43.390Z,6.71
2023-04-27T03:20:12.543Z,6.72
2023-04-27T03:22:41.215Z,6.72
2023-04-27T03:25:10.414Z,6.73
2023-04-27T03:27:40.744Z,6.74
2023-04-27T03:30:10.509Z,6.75
2023-04-27T03:32:38.965Z,6.76
2023-04-27T03:35:08.262Z,6.78
2023-04-27T03:37:36.822Z,6.81
2023-04-27T03:40:07.732Z,6.84
2023-04-27T03:42:36.450Z,6.87
2023-04-27T03:45:06.772Z,6.91
2023-04-27T03:47:35.909Z,6.93
2023-04-27T03:50:04.859Z,6.95
2023-04-27T03:52:34.676Z,6.97
2023-04-27T03:55:03.931Z,6.99
2023-04-27T03:57:32.213Z,7.02
2023-04-27T04:00:01.050Z,7.05
2023-04-27T04:02:29.826Z,7.09
2023-04-27T04:04:59.404Z,7.14
2023-04-27T04:07:28.155Z,7.18
2023-04-27T04:09:56.919Z,7.22
2023-04-27T04:12:25.599Z,7.26
2023-04-27T04:14:54.195Z,7.28
2023-04-27T04:17:23.155Z,7.30
2023-04-27T04:19:51.729Z,7.32
2023-04-27T04:22:20.039Z,7.34
2023-04-27T04:24:48.525Z,7.36
2023-04-27T04:27:17.826Z,7.40
2023-04-27T04:29:46.414Z,7.45
2023-04-27T04:32:18.273Z,7.49
2023-04-27T04:34:53.715Z,7.56
2023-04-27T04:37:23.528Z,7.59
2023-04-27T04:39:52.509Z,7.60
2023-04-27T04:42:21.419Z,7.62
2023-04-27T04:44:50.208Z,7.63
2023-04-27T04:47:19.308Z,7.65
2023-04-27T04:49:47.884Z,7.68
2023-04-27T04:52:16.854Z,7.71
2023-04-27T04:54:45.266Z,7.74
2023-04-27T04:57:13.844Z,7.76
2023-04-27T04:59:42.839Z,7.78
2023-04-27T05:02:13.323Z,7.78
2023-04-27T05:04:42.099Z,7.79
2023-04-27T05:07:14.748Z,7.78
2023-04-27T05:09:44.245Z,7.77
2023-04-27T05:12:13.035Z,7.77
2023-04-27T05:14:41.920Z,7.79
2023-04-27T05:17:10.717Z,7.84
2023-04-27T05:19:39.106Z,7.90
2023-04-27T05:22:07.581Z,7.94
2023-04-27T05:24:36.265Z,7.99
2023-04-27T05:27:04.745Z,8.05
2023-04-27T05:29:33.225Z,8.09
2023-04-27T05:32:01.947Z,8.12
2023-04-27T05:34:30.494Z,8.16
2023-04-27T05:36:58.979Z,8.21
2023-04-27T05:39:28.181Z,8.23
2023-04-27T05:41:57.695Z,8.26
2023-04-27T05:44:28.829Z,8.29
2023-04-27T05:46:57.412Z,8.32
2023-04-27T05:49:26.060Z,8.34
2023-04-27T05:51:54.588Z,8.38
2023-04-27T05:54:23.008Z,8.42
2023-04-27T05:56:51.547Z,8.46
2023-04-27T05:59:20.298Z,8.50
2023-04-27T06:01:48.994Z,8.55
2023-04-27T06:04:17.847Z,8.59
2023-04-27T06:06:46.707Z,8.63
2023-04-27T06:09:15.356Z,8.70
2023-04-27T06:11:44.061Z,8.77
2023-04-27T06:14:13.999Z,8.84
2023-04-27T06:16:42.682Z,8.90
2023-04-27T06:19:11.825Z,8.97
2023-04-27T06:21:41.181Z,9.08
2023-04-27T06:24:09.599Z,9.21
2023-04-27T06:26:38.254Z,9.35
2023-04-27T06:29:08.541Z,9.56
2023-04-27T06:31:37.211Z,9.82
2023-04-27T06:34:06.924Z,9.98
2023-04-27T06:36:35.303Z,10.14
2023-04-27T06:39:03.794Z,10.36
2023-04-27T06:41:34.093Z,10.55
2023-04-27T06:44:02.540Z,10.72
2023-04-27T06:46:31.329Z,10.82
2023-04-27T06:48:59.914Z,10.88
2023-04-27T06:51:28.711Z,10.94
2023-04-27T06:53:57.488Z,10.93
2023-04-27T06:57:25.675Z,10.90
2023-04-27T07:00:54.181Z,10.82
2023-04-27T07:04:22.644Z,10.79
2023-04-27T07:07:51.631Z,10.70
2023-04-27T07:10:56.560Z,10.58
2023-04-27T07:14:24.771Z,10.52
2023-04-27T07:17:56.833Z,10.43
2023-04-27T07:21:25.417Z,10.33
2023-04-27T07:24:53.552Z,10.23
2023-04-27T07:28:27.108Z,10.13
2023-04-27T07:31:55.400Z,10.04
2023-04-27T07:35:23.565Z,9.95
2023-04-27T07:38:51.607Z,9.85
2023-04-27T07:42:19.855Z,9.77
2023-04-27T07:45:54.019Z,9.66
2023-04-27T07:49:03.021Z,9.64
2023-04-27T07:51:32.313Z,9.58
2023-04-27T07:54:02.552Z,9.51
2023-04-27T07:56:31.321Z,9.44
2023-04-27T07:58:59.805Z,9.39
2023-04-27T08:01:28.298Z,9.40
2023-04-27T08:03:57.293Z,9.43
2023-04-27T08:06:26.375Z,9.43
2023-04-27T08:08:58.550Z,9.42
2023-04-27T08:11:27.440Z,9.41
2023-04-27T08:13:56.228Z,9.46
2023-04-27T08:16:24.951Z,9.53
2023-04-27T08:18:53.705Z,9.64
2023-04-27T08:21:22.290Z,9.79
2023-04-27T08:23:51.066Z,10.08
2023-04-27T08:26:19.570Z,10.49
2023-04-27T08:28:49.654Z,10.79
2023-04-27T08:31:18.404Z,10.93
2023-04-27T08:33:47.371Z,10.97
2023-04-27T08:36:15.745Z,11.08
2023-04-27T08:38:44.849Z,11.31
2023-04-27T08:41:21.941Z,11.44
2023-04-27T08:43:53.718Z,11.59
2023-04-27T08:46:24.159Z,11.78
2023-04-27T08:48:54.509Z,11.92
2023-04-27T08:51:24.399Z,12.05
2023-04-27T08:53:55.370Z,12.20
2023-04-27T08:56:25.836Z,12.42
2023-04-27T08:58:56.638Z,12.63
2023-04-27T09:01:26.423Z,12.83
2023-04-27T09:04:00.460Z,12.99
2023-04-27T09:07:28.896Z,13.26
2023-04-27T09:10:04.744Z,13.81
2023-04-27T09:12:33.246Z,14.28
2023-04-27T09:16:06.949Z,14.68
2023-04-27T09:19:35.224Z,15.07
2023-04-27T09:23:07.183Z,15.05
2023-04-27T09:30:32.831Z,14.91
2023-04-27T09:33:02.188Z,14.87
2023-04-27T09:36:30.625Z,14.56
2023-04-27T09:40:02.707Z,14.29
2023-04-27T09:43:31.179Z,14.38
2023-04-27T09:46:59.274Z,14.64
2023-04-27T09:49:31.538Z,14.83
2023-04-27T09:52:59.625Z,14.81
2023-04-27T09:56:08.306Z,15.00
2023-04-27T09:59:02.585Z,15.23
2023-04-27T10:02:33.108Z,15.43
2023-04-27T10:06:04.789Z,14.91
2023-04-27T10:08:52.448Z,14.50
2023-04-27T10:12:20.600Z,14.19
2023-04-27T10:14:57.525Z,13.84
2023-04-27T10:18:29.774Z,13.99
2023-04-27T10:21:12.955Z,14.66
2023-04-27T10:23:52.009Z,14.78
2023-04-27T10:27:26.671Z,14.54
2023-04-27T10:30:55.028Z,14.32
2023-04-27T10:34:28.657Z,14.19
2023-04-27T10:37:08.882Z,14.09
2023-04-27T10:40:37.346Z,14.00
2023-04-27T10:43:16.483Z,13.92
2023-04-27T10:46:47.192Z,13.98
2023-04-27T10:49:17.093Z,13.94
2023-04-27T10:51:47.120Z,13.97
2023-04-27T10:55:15.479Z,14.00
2023-04-27T10:58:48.648Z,13.85
2023-04-27T11:01:25.625Z,13.63
2023-04-27T11:04:56.855Z,13.53
2023-04-27T11:08:29.766Z,13.47
2023-04-27T11:11:57.899Z,13.39
2023-04-27T11:15:25.974Z,13.51
2023-04-27T11:18:05.124Z,13.85
2023-04-27T11:20:48.967Z,14.12
2023-04-27T11:23:29.157Z,14.10
2023-04-27T11:26:08.908Z,14.12
2023-04-27T11:28:38.004Z,14.04
2023-04-27T11:31:07.443Z,14.10
2023-04-27T11:33:36.521Z,14.14
2023-04-27T11:37:17.432Z,14.08
2023-04-27T11:40:47.175Z,13.89
2023-04-27T11:43:15.876Z,13.66
2023-04-27T11:45:47.714Z,13.48
2023-04-27T11:48:16.953Z,13.42
2023-04-27T11:50:49.591Z,13.25
2023-04-27T11:53:18.961Z,13.06
2023-04-27T11:55:52.741Z,12.90
2023-04-27T11:58:21.565Z,12.66
2023-04-27T12:00:50.118Z,12.53
2023-04-27T12:03:19.038Z,12.46
2023-04-27T12:05:51.723Z,12.31
2023-04-27T12:08:20.906Z,12.17
2023-04-27T12:10:49.577Z,12.01
2023-04-27T12:13:18.058Z,11.92
2023-04-27T12:15:46.765Z,11.82
2023-04-27T12:18:15.173Z,11.71
2023-04-27T12:20:43.771Z,11.66
2023-04-27T12:23:12.207Z,11.63
2023-04-27T12:25:41.498Z,11.62
2023-04-27T12:28:26.870Z,11.61
2023-04-27T12:30:55.480Z,11.58
2023-04-27T12:33:24.013Z,11.55
2023-04-27T12:35:52.525Z,11.54
2023-04-27T12:38:22.755Z,11.55
2023-04-27T12:40:51.554Z,11.58
2023-04-27T12:43:19.917Z,11.63
2023-04-27T12:45:48.927Z,11.72
2023-04-27T12:48:17.769Z,11.78
2023-04-27T12:50:47.521Z,11.78
2023-04-27T12:53:16.428Z,11.74
2023-04-27T12:55:45.195Z,11.69
2023-04-27T12:58:13.996Z,11.65
2023-04-27T13:00:42.878Z,11.62
2023-04-27T13:03:11.617Z,11.58
2023-04-27T13:05:40.634Z,11.52
2023-04-27T13:08:09.447Z,11.49
2023-04-27T13:10:38.337Z,11.44
2023-04-27T13:13:08.153Z,11.38
2023-04-27T13:15:37.801Z,11.38
2023-04-27T13:18:06.905Z,11.40
2023-04-27T13:20:36.474Z,11.46
2023-04-27T13:23:06.057Z,11.49
2023-04-27T13:25:34.659Z,11.52
2023-04-27T13:28:03.040Z,11.58
2023-04-27T13:30:32.616Z,11.64
2023-04-27T13:33:14.179Z,11.71
2023-04-27T13:35:47.640Z,11.82
2023-04-27T13:38:16.218Z,11.92
2023-04-27T13:40:44.707Z,11.97
2023-04-27T13:43:13.373Z,12.02
2023-04-27T13:45:42.805Z,12.09
2023-04-27T13:48:29.159Z,12.11
2023-04-27T13:51:35.987Z,12.03
2023-04-27T13:54:05.077Z,11.94
2023-04-27T13:56:33.556Z,11.88
2023-04-27T13:59:02.142Z,11.85
2023-04-27T14:02:30.428Z,11.83
2023-04-27T14:05:38.902Z,11.82
2023-04-27T14:08:07.589Z,11.78
2023-04-27T14:10:39.177Z,11.77
2023-04-27T14:13:08.182Z,11.75
2023-04-27T14:15:37.688Z,11.79
2023-04-27T14:18:08.211Z,11.80
2023-04-27T14:20:38.002Z,11.82
2023-04-27T14:23:07.345Z,11.76
2023-04-27T14:25:35.720Z,11.67
2023-04-27T14:28:06.271Z,11.62
2023-04-27T14:30:35.843Z,11.59
2023-04-27T14:33:04.513Z,11.57
2023-04-27T14:35:35.284Z,11.61
2023-04-27T14:38:04.420Z,11.70
2023-04-27T14:40:33.369Z,11.79
2023-04-27T14:43:01.750Z,11.84
2023-04-27T14:45:37.022Z,11.91
2023-04-27T14:48:12.774Z,11.96
2023-04-27T14:50:41.534Z,12.01
2023-04-27T14:53:10.016Z,12.09
2023-04-27T14:55:38.490Z,12.11
2023-04-27T14:58:06.834Z,12.15
2023-04-27T15:00:35.362Z,12.13
2023-04-27T15:03:04.343Z,12.13
2023-04-27T15:05:33.003Z,12.13
2023-04-27T15:09:05.629Z,12.14
2023-04-27T15:11:34.355Z,12.07
2023-04-27T15:14:02.794Z,12.05
2023-04-27T15:16:31.907Z,12.08
2023-04-27T15:19:00.888Z,12.07
2023-04-27T15:21:31.456Z,12.08
2023-04-27T15:23:59.830Z,12.11
2023-04-27T15:26:28.793Z,12.17
2023-04-27T15:28:59.538Z,12.22
2023-04-27T15:31:28.477Z,12.28
2023-04-27T15:33:57.549Z,12.30
2023-04-27T15:36:28.658Z,12.31
2023-04-27T15:38:58.008Z,12.31
2023-04-27T15:41:26.557Z,12.26
2023-04-27T15:43:55.026Z,12.25
2023-04-27T15:46:23.526Z,12.25
2023-04-27T15:48:52.199Z,12.29
2023-04-27T15:51:20.685Z,12.29
2023-04-27T15:53:49.067Z,12.33
2023-04-27T15:56:17.953Z,12.36
2023-04-27T15:58:46.577Z,12.38
2023-04-27T16:01:15.064Z,12.38
2023-04-27T16:03:43.890Z,12.41
2023-04-27T16:06:12.597Z,12.44
2023-04-27T16:09:40.690Z,12.47
2023-04-27T16:12:09.260Z,12.45
2023-04-27T16:14:38.360Z,12.39
2023-04-27T16:17:06.945Z,12.33
2023-04-27T16:19:35.426Z,12.28
2023-04-27T16:22:04.552Z,12.23
2023-04-27T16:24:33.282Z,12.21
2023-04-27T16:27:20.739Z,12.19
2023-04-27T16:29:49.216Z,12.17
2023-04-27T16:32:20.435Z,12.16
2023-04-27T16:34:49.155Z,12.13
2023-04-27T16:37:18.152Z,12.10
2023-04-27T16:39:47.039Z,12.06
2023-04-27T16:42:20.622Z,12.05
2023-04-27T16:44:49.163Z,12.02
2023-04-27T16:47:17.606Z,11.99
2023-04-27T16:49:46.406Z,11.98
2023-04-27T16:52:14.836Z,11.96
2023-04-27T16:54:43.214Z,11.91
2023-04-27T16:57:13.590Z,11.82
2023-04-27T16:59:42.079Z,11.73
2023-04-27T17:02:22.995Z,11.66
2023-04-27T17:04:54.527Z,11.59
2023-04-27T17:07:23.107Z,11.55
2023-04-27T17:09:51.781Z,11.51
2023-04-27T17:12:20.160Z,11.47
2023-04-27T17:14:48.733Z,11.41
2023-04-27T17:17:17.563Z,11.34
2023-04-27T17:19:45.773Z,11.29
2023-04-27T17:22:15.135Z,11.25
2023-04-27T17:24:43.790Z,11.18
2023-04-27T17:27:12.780Z,11.07
2023-04-27T17:29:41.263Z,11.01
2023-04-27T17:32:09.857Z,10.95
2023-04-27T17:34:40.419Z,10.87
2023-04-27T17:37:10.907Z,10.83
2023-04-27T17:39:39.595Z,10.77
2023-04-27T17:42:12.507Z,10.71
2023-04-27T17:44:42.589Z,10.64
2023-04-27T17:47:12.006Z,10.58
2023-04-27T17:49:40.398Z,10.53
2023-04-27T17:52:09.909Z,10.49
2023-04-27T17:54:39.712Z,10.47
2023-04-27T17:57:09.320Z,10.44
2023-04-27T17:59:38.009Z,10.40
2023-04-27T18:02:06.525Z,10.38
2023-04-27T18:04:35.156Z,10.37
2023-04-27T18:07:03.972Z,10.36
2023-04-27T18:09:33.070Z,10.31
2023-04-27T18:12:02.472Z,10.26
2023-04-27T18:14:31.664Z,10.22
2023-04-27T18:17:00.396Z,10.18
2023-04-27T18:19:28.936Z,10.17
2023-04-27T18:21:57.417Z,10.17
2023-04-27T18:24:26.213Z,10.17
2023-04-27T18:26:54.584Z,10.18
2023-04-27T18:29:23.068Z,10.19
2023-04-27T18:31:55.058Z,10.20
2023-04-27T18:34:23.817Z,10.21
2023-04-27T18:36:52.402Z,10.19
2023-04-27T18:39:21.091Z,10.17
2023-04-27T18:41:49.610Z,10.13
2023-04-27T18:44:18.059Z,10.08
2023-04-27T18:46:46.739Z,10.02
2023-04-27T18:49:15.634Z,9.96
2023-04-27T18:51:45.286Z,9.88
2023-04-27T18:54:13.903Z,9.81
2023-04-27T18:56:42.386Z,9.70
2023-04-27T18:59:11.266Z,9.61
2023-04-27T19:01:41.266Z,9.53
2023-04-27T19:04:09.932Z,9.46
2023-04-27T19:06:38.705Z,9.41
2023-04-27T19:09:09.455Z,9.36
2023-04-27T19:11:37.811Z,9.30
2023-04-27T19:14:06.193Z,9.23
2023-04-27T19:16:36.808Z,9.17
2023-04-27T19:19:05.301Z,9.12
2023-04-27T19:21:33.893Z,9.06
2023-04-27T19:24:02.750Z,9.03
2023-04-27T19:26:31.672Z,8.99
2023-04-27T19:29:00.004Z,8.97
2023-04-27T19:31:28.856Z,8.96
2023-04-27T19:34:04.160Z,8.94
2023-04-27T19:36:33.487Z,8.92
2023-04-27T19:39:02.171Z,8.90
2023-04-27T19:41:30.489Z,8.87
2023-04-27T19:43:59.211Z,8.85
2023-04-27T19:46:27.941Z,8.81
2023-04-27T19:48:56.412Z,8.79
2023-04-27T19:51:25.099Z,8.77
2023-04-27T19:53:53.585Z,8.74
2023-04-27T19:56:21.997Z,8.73
2023-04-27T19:58:50.617Z,8.71
2023-04-27T20:01:20.253Z,8.69
2023-04-27T20:03:49.021Z,8.68
2023-04-27T20:06:20.261Z,8.68
2023-04-27T20:08:49.278Z,8.68
2023-04-27T20:11:17.678Z,8.68
2023-04-27T20:13:46.486Z,8.67
2023-04-27T20:16:15.190Z,8.66
2023-04-27T20:18:45.322Z,8.65
2023-04-27T20:21:13.945Z,8.64
2023-04-27T20:23:43.041Z,8.63
2023-04-27T20:26:11.520Z,8.60
2023-04-27T20:28:40.254Z,8.58
2023-04-27T20:31:08.802Z,8.56
2023-04-27T20:33:37.380Z,8.54
2023-04-27T20:36:14.042Z,8.52
2023-04-27T20:38:46.733Z,8.49
2023-04-27T20:41:15.462Z,8.47
2023-04-27T20:43:45.746Z,8.44
2023-04-27T20:46:14.243Z,8.41
2023-04-27T20:48:43.040Z,8.39
2023-04-27T20:51:11.500Z,8.36
2023-04-27T20:53:40.598Z,8.33
2023-04-27T20:56:09.461Z,8.30
2023-04-27T20:58:37.968Z,8.28
2023-04-27T21:01:06.459Z,8.26
2023-04-27T21:03:36.195Z,8.26
2023-04-27T21:06:05.480Z,8.27
2023-04-27T21:08:34.879Z,8.28
2023-04-27T21:11:03.555Z,8.29
2023-04-27T21:13:32.037Z,8.29
2023-04-27T21:16:01.237Z,8.28
2023-04-27T21:18:30.928Z,8.25
2023-04-27T21:21:00.155Z,8.25
2023-04-27T21:23:28.756Z,8.21
2023-04-27T21:25:57.429Z,8.17
2023-04-27T21:28:27.229Z,8.12
2023-04-27T21:30:55.541Z,8.10
2023-04-27T21:33:24.094Z,8.05
2023-04-27T21:35:52.676Z,8.02
2023-04-27T21:38:21.160Z,8.00
2023-04-27T21:40:49.748Z,7.99
2023-04-27T21:43:18.329Z,7.99
2023-04-27T21:45:47.014Z,7.99
2023-04-27T21:48:15.591Z,7.99
2023-04-27T21:50:44.497Z,8.00
2023-04-27T21:53:12.972Z,7.99
2023-04-27T21:55:41.762Z,7.97
2023-04-27T21:58:10.412Z,7.96
2023-04-27T22:00:39.140Z,7.93
2023-04-27T22:03:07.975Z,7.90
2023-04-27T22:05:40.406Z,7.86
2023-04-27T22:08:09.294Z,7.84
2023-04-27T22:10:37.773Z,7.78
2023-04-27T22:13:17.825Z,7.74
2023-04-27T22:15:48.330Z,7.67
2023-04-27T22:18:16.940Z,7.62
2023-04-27T22:20:46.466Z,7.56
2023-04-27T22:23:15.186Z,7.50
2023-04-27T22:25:43.872Z,7.41
2023-04-27T22:28:13.020Z,7.34
2023-04-27T22:30:44.944Z,7.25
2023-04-27T22:33:13.637Z,7.15
2023-04-27T22:35:42.319Z,7.05
2023-04-27T22:38:11.557Z,6.95
2023-04-27T22:40:40.063Z,6.86
2023-04-27T22:43:08.745Z,6.78
2023-04-27T22:45:38.865Z,6.73
2023-04-27T22:48:08.070Z,6.69
2023-04-27T22:50:36.645Z,6.64
2023-04-27T22:53:05.214Z,6.59
2023-04-27T22:55:33.902Z,6.53
2023-04-27T22:58:02.283Z,6.46
2023-04-27T23:00:31.076Z,6.39
2023-04-27T23:02:59.600Z,6.31
2023-04-27T23:05:29.366Z,6.22
2023-04-27T23:07:58.054Z,6.13
2023-04-27T23:10:27.155Z,6.05
2023-04-27T23:12:57.272Z,5.97
2023-04-27T23:15:26.026Z,5.91
2023-04-27T23:17:54.583Z,5.84
2023-04-27T23:20:28.738Z,5.78
2023-04-27T23:22:58.009Z,5.70
2023-04-27T23:25:26.558Z,5.62
2023-04-27T23:27:55.019Z,5.54
2023-04-27T23:30:23.614Z,5.46
2023-04-27T23:32:52.429Z,5.37
2023-04-27T23:35:21.112Z,5.26
2023-04-27T23:37:49.803Z,5.16
2023-04-27T23:40:18.328Z,5.05
2023-04-27T23:42:46.740Z,4.94
2023-04-27T23:45:15.420Z,4.87
2023-04-27T23:47:44.143Z,4.80
2023-04-27T23:50:12.696Z,4.72
2023-04-27T23:52:41.071Z,4.64
2023-04-27T23:55:10.479Z,4.56
2023-04-27T23:57:38.957Z,4.47
